sensor_id;sensor_type;location;lat;lon;timestamp;P1;durP1;ratioP1;P2;durP2;ratioP2
50012;SDS011;35901;48.694;9.476;2024-01-25T00:01:17;14.30;;;3.10;;
50012;SDS011;35901;48.694;9.476;2024-01-25T00:03:43;13.13;;;3.10;;
50012;SDS011;35901;48.694;9.476;2024-01-25T00:06:08;12.73;;;3.40;;
50012;SDS011;35901;48.694;9.476;2024-01-25T00:08:34;10.43;;;3.07;;
50012;SDS011;35901;48.694;9.476;2024-01-25T00:11:04;7.60;;;2.63;;
50012;SDS011;35901;48.694;9.476;2024-01-25T00:13:30;12.37;;;3.27;;
50012;SDS011;35901;48.694;9.476;2024-01-25T00:15:56;8.03;;;2.80;;
50012;SDS011;35901;48.694;9.476;2024-01-25T00:18:22;10.33;;;2.90;;
50012;SDS011;35901;48.694;9.476;2024-01-25T00:20:47;9.43;;;2.90;;
50012;SDS011;35901;48.694;9.476;2024-01-25T00:23:13;8.67;;;2.63;;
50012;SDS011;35901;48.694;9.476;2024-01-25T00:25:39;12.13;;;3.10;;
50012;SDS011;35901;48.694;9.476;2024-01-25T00:28:05;13.10;;;3.50;;
50012;SDS011;35901;48.694;9.476;2024-01-25T00:30:31;11.57;;;3.60;;
50012;SDS011;35901;48.694;9.476;2024-01-25T00:32:57;13.03;;;4.43;;
50012;SDS011;35901;48.694;9.476;2024-01-25T00:35:23;12.23;;;3.43;;
50012;SDS011;35901;48.694;9.476;2024-01-25T00:37:49;9.50;;;3.50;;
50012;SDS011;35901;48.694;9.476;2024-01-25T00:40:15;13.50;;;3.37;;
50012;SDS011;35901;48.694;9.476;2024-01-25T00:42:44;12.10;;;2.90;;
50012;SDS011;35901;48.694;9.476;2024-01-25T00:45:18;14.53;;;3.70;;
50012;SDS011;35901;48.694;9.476;2024-01-25T00:47:46;9.10;;;2.87;;
50012;SDS011;35901;48.694;9.476;2024-01-25T00:50:13;9.20;;;3.10;;
50012;SDS011;35901;48.694;9.476;2024-01-25T00:52:39;9.23;;;2.63;;
50012;SDS011;35901;48.694;9.476;2024-01-25T00:55:06;11.80;;;3.67;;
50012;SDS011;35901;48.694;9.476;2024-01-25T00:57:33;16.27;;;3.73;;
50012;SDS011;35901;48.694;9.476;2024-01-25T00:59:59;9.47;;;3.00;;
50012;SDS011;35901;48.694;9.476;2024-01-25T01:02:25;12.70;;;2.90;;
50012;SDS011;35901;48.694;9.476;2024-01-25T01:04:56;11.03;;;3.23;;
50012;SDS011;35901;48.694;9.476;2024-01-25T01:07:22;12.20;;;3.17;;
50012;SDS011;35901;48.694;9.476;2024-01-25T01:09:48;14.23;;;3.17;;
50012;SDS011;35901;48.694;9.476;2024-01-25T01:12:14;14.30;;;3.57;;
50012;SDS011;35901;48.694;9.476;2024-01-25T01:14:41;12.57;;;3.20;;
50012;SDS011;35901;48.694;9.476;2024-01-25T01:17:09;11.17;;;3.23;;
50012;SDS011;35901;48.694;9.476;2024-01-25T01:19:35;13.97;;;3.27;;
50012;SDS011;35901;48.694;9.476;2024-01-25T01:22:01;12.83;;;3.20;;
50012;SDS011;35901;48.694;9.476;2024-01-25T01:24:27;13.90;;;3.10;;
50012;SDS011;35901;48.694;9.476;2024-01-25T01:26:52;11.03;;;3.07;;
50012;SDS011;35901;48.694;9.476;2024-01-25T01:29:18;8.20;;;2.60;;
50012;SDS011;35901;48.694;9.476;2024-01-25T01:31:44;14.07;;;3.27;;
50012;SDS011;35901;48.694;9.476;2024-01-25T01:34:11;13.47;;;3.27;;
50012;SDS011;35901;48.694;9.476;2024-01-25T01:36:39;11.53;;;3.17;;
50012;SDS011;35901;48.694;9.476;2024-01-25T01:39:05;16.37;;;3.57;;
50012;SDS011;35901;48.694;9.476;2024-01-25T01:41:34;11.90;;;3.27;;
50012;SDS011;35901;48.694;9.476;2024-01-25T01:43:59;14.03;;;3.20;;
50012;SDS011;35901;48.694;9.476;2024-01-25T01:48:59;11.13;;;3.10;;
50012;SDS011;35901;48.694;9.476;2024-01-25T01:51:25;17.13;;;4.13;;
50012;SDS011;35901;48.694;9.476;2024-01-25T01:53:51;13.30;;;3.37;;
50012;SDS011;35901;48.694;9.476;2024-01-25T01:56:19;14.80;;;3.60;;
50012;SDS011;35901;48.694;9.476;2024-01-25T01:58:45;10.13;;;3.27;;
50012;SDS011;35901;48.694;9.476;2024-01-25T02:01:13;12.20;;;3.33;;
50012;SDS011;35901;48.694;9.476;2024-01-25T02:03:39;15.37;;;3.30;;
50012;SDS011;35901;48.694;9.476;2024-01-25T02:06:05;11.57;;;3.30;;
50012;SDS011;35901;48.694;9.476;2024-01-25T02:08:31;14.80;;;3.80;;
50012;SDS011;35901;48.694;9.476;2024-01-25T02:10:58;12.60;;;3.00;;
50012;SDS011;35901;48.694;9.476;2024-01-25T02:13:23;12.07;;;3.27;;
50012;SDS011;35901;48.694;9.476;2024-01-25T02:15:49;13.50;;;3.47;;
50012;SDS011;35901;48.694;9.476;2024-01-25T02:18:15;13.93;;;3.23;;
50012;SDS011;35901;48.694;9.476;2024-01-25T02:20:40;18.57;;;4.13;;
50012;SDS011;35901;48.694;9.476;2024-01-25T02:27:58;14.60;;;3.30;;
50012;SDS011;35901;48.694;9.476;2024-01-25T02:30:24;16.13;;;3.13;;
50012;SDS011;35901;48.694;9.476;2024-01-25T02:32:50;13.17;;;3.20;;
50012;SDS011;35901;48.694;9.476;2024-01-25T02:35:15;10.97;;;3.63;;
50012;SDS011;35901;48.694;9.476;2024-01-25T02:37:41;12.93;;;3.43;;
50012;SDS011;35901;48.694;9.476;2024-01-25T02:40:07;12.70;;;3.70;;
50012;SDS011;35901;48.694;9.476;2024-01-25T02:42:33;17.53;;;3.43;;
50012;SDS011;35901;48.694;9.476;2024-01-25T02:44:59;18.10;;;3.43;;
50012;SDS011;35901;48.694;9.476;2024-01-25T02:47:25;16.17;;;3.77;;
50012;SDS011;35901;48.694;9.476;2024-01-25T02:49:51;11.33;;;3.17;;
50012;SDS011;35901;48.694;9.476;2024-01-25T02:52:16;10.03;;;3.07;;
50012;SDS011;35901;48.694;9.476;2024-01-25T02:54:43;10.17;;;2.77;;
50012;SDS011;35901;48.694;9.476;2024-01-25T02:57:09;15.90;;;3.07;;
50012;SDS011;35901;48.694;9.476;2024-01-25T02:59:47;12.53;;;2.90;;
50012;SDS011;35901;48.694;9.476;2024-01-25T03:02:16;10.37;;;2.80;;
50012;SDS011;35901;48.694;9.476;2024-01-25T03:04:48;13.40;;;2.97;;
50012;SDS011;35901;48.694;9.476;2024-01-25T03:07:15;10.87;;;2.60;;
50012;SDS011;35901;48.694;9.476;2024-01-25T03:09:43;13.07;;;2.90;;
50012;SDS011;35901;48.694;9.476;2024-01-25T03:12:15;10.03;;;2.90;;
50012;SDS011;35901;48.694;9.476;2024-01-25T03:14:42;10.93;;;2.93;;
50012;SDS011;35901;48.694;9.476;2024-01-25T03:17:09;16.47;;;3.30;;
50012;SDS011;35901;48.694;9.476;2024-01-25T03:19:37;13.27;;;2.80;;
50012;SDS011;35901;48.694;9.476;2024-01-25T03:22:02;13.40;;;3.43;;
50012;SDS011;35901;48.694;9.476;2024-01-25T03:24:28;11.57;;;2.90;;
50012;SDS011;35901;48.694;9.476;2024-01-25T03:26:54;13.20;;;3.00;;
50012;SDS011;35901;48.694;9.476;2024-01-25T03:29:20;14.83;;;3.37;;
50012;SDS011;35901;48.694;9.476;2024-01-25T03:31:46;19.00;;;3.40;;
50012;SDS011;35901;48.694;9.476;2024-01-25T03:34:12;15.57;;;2.90;;
50012;SDS011;35901;48.694;9.476;2024-01-25T03:36:39;14.97;;;3.87;;
50012;SDS011;35901;48.694;9.476;2024-01-25T03:39:05;13.80;;;3.30;;
50012;SDS011;35901;48.694;9.476;2024-01-25T03:41:32;13.80;;;3.73;;
50012;SDS011;35901;48.694;9.476;2024-01-25T03:43:59;10.93;;;3.30;;
50012;SDS011;35901;48.694;9.476;2024-01-25T03:46:30;12.73;;;3.10;;
50012;SDS011;35901;48.694;9.476;2024-01-25T03:49:07;16.20;;;3.93;;
50012;SDS011;35901;48.694;9.476;2024-01-25T03:51:33;13.13;;;3.37;;
50012;SDS011;35901;48.694;9.476;2024-01-25T03:54:00;12.23;;;3.17;;
50012;SDS011;35901;48.694;9.476;2024-01-25T03:56:25;14.27;;;3.47;;
50012;SDS011;35901;48.694;9.476;2024-01-25T03:58:52;14.53;;;3.40;;
50012;SDS011;35901;48.694;9.476;2024-01-25T04:01:18;17.20;;;3.33;;
50012;SDS011;35901;48.694;9.476;2024-01-25T04:03:47;14.57;;;3.33;;
50012;SDS011;35901;48.694;9.476;2024-01-25T04:06:12;12.83;;;3.40;;
50012;SDS011;35901;48.694;9.476;2024-01-25T04:08:38;13.90;;;4.00;;
50012;SDS011;35901;48.694;9.476;2024-01-25T04:11:04;12.73;;;3.27;;
50012;SDS011;35901;48.694;9.476;2024-01-25T04:13:36;20.50;;;3.80;;
50012;SDS011;35901;48.694;9.476;2024-01-25T04:16:01;15.93;;;3.67;;
50012;SDS011;35901;48.694;9.476;2024-01-25T04:18:27;16.33;;;3.70;;
50012;SDS011;35901;48.694;9.476;2024-01-25T04:20:53;17.53;;;3.93;;
50012;SDS011;35901;48.694;9.476;2024-01-25T04:23:19;15.87;;;3.70;;
50012;SDS011;35901;48.694;9.476;2024-01-25T04:25:44;12.90;;;3.23;;
50012;SDS011;35901;48.694;9.476;2024-01-25T04:28:10;18.17;;;3.77;;
50012;SDS011;35901;48.694;9.476;2024-01-25T04:30:36;17.30;;;3.87;;
50012;SDS011;35901;48.694;9.476;2024-01-25T04:33:01;11.77;;;3.40;;
50012;SDS011;35901;48.694;9.476;2024-01-25T04:35:27;14.87;;;4.00;;
50012;SDS011;35901;48.694;9.476;2024-01-25T04:37:53;16.70;;;4.00;;
50012;SDS011;35901;48.694;9.476;2024-01-25T04:40:19;14.93;;;3.57;;
50012;SDS011;35901;48.694;9.476;2024-01-25T04:42:44;15.10;;;3.50;;
50012;SDS011;35901;48.694;9.476;2024-01-25T04:45:10;15.13;;;3.50;;
50012;SDS011;35901;48.694;9.476;2024-01-25T04:47:37;17.10;;;3.73;;
50012;SDS011;35901;48.694;9.476;2024-01-25T04:50:04;15.90;;;3.73;;
50012;SDS011;35901;48.694;9.476;2024-01-25T04:52:30;15.13;;;3.77;;
50012;SDS011;35901;48.694;9.476;2024-01-25T04:54:55;17.10;;;4.03;;
50012;SDS011;35901;48.694;9.476;2024-01-25T04:57:21;15.97;;;3.70;;
50012;SDS011;35901;48.694;9.476;2024-01-25T04:59:46;16.23;;;4.43;;
50012;SDS011;35901;48.694;9.476;2024-01-25T05:02:12;16.13;;;4.10;;
50012;SDS011;35901;48.694;9.476;2024-01-25T05:04:38;13.90;;;3.40;;
50012;SDS011;35901;48.694;9.476;2024-01-25T05:07:03;17.40;;;3.80;;
50012;SDS011;35901;48.694;9.476;2024-01-25T05:09:29;20.70;;;4.00;;
50012;SDS011;35901;48.694;9.476;2024-01-25T05:11:54;14.37;;;3.27;;
50012;SDS011;35901;48.694;9.476;2024-01-25T05:14:23;16.30;;;4.23;;
50012;SDS011;35901;48.694;9.476;2024-01-25T05:16:49;13.27;;;3.57;;
50012;SDS011;35901;48.694;9.476;2024-01-25T05:19:15;13.30;;;3.77;;
50012;SDS011;35901;48.694;9.476;2024-01-25T05:21:41;13.67;;;3.83;;
50012;SDS011;35901;48.694;9.476;2024-01-25T05:24:06;13.67;;;3.77;;
50012;SDS011;35901;48.694;9.476;2024-01-25T05:26:32;11.90;;;3.63;;
50012;SDS011;35901;48.694;9.476;2024-01-25T05:28:58;15.30;;;3.77;;
50012;SDS011;35901;48.694;9.476;2024-01-25T05:31:24;16.00;;;3.87;;
50012;SDS011;35901;48.694;9.476;2024-01-25T05:33:49;16.13;;;4.20;;
50012;SDS011;35901;48.694;9.476;2024-01-25T05:36:15;14.70;;;3.57;;
50012;SDS011;35901;48.694;9.476;2024-01-25T05:38:41;14.03;;;3.87;;
50012;SDS011;35901;48.694;9.476;2024-01-25T05:41:06;13.77;;;3.60;;
50012;SDS011;35901;48.694;9.476;2024-01-25T05:43:32;20.33;;;3.80;;
50012;SDS011;35901;48.694;9.476;2024-01-25T05:45:58;17.27;;;4.60;;
50012;SDS011;35901;48.694;9.476;2024-01-25T05:48:24;11.90;;;3.80;;
50012;SDS011;35901;48.694;9.476;2024-01-25T05:50:49;15.63;;;4.27;;
50012;SDS011;35901;48.694;9.476;2024-01-25T05:53:16;15.90;;;4.10;;
50012;SDS011;35901;48.694;9.476;2024-01-25T05:55:44;13.90;;;3.67;;
50012;SDS011;35901;48.694;9.476;2024-01-25T05:58:09;16.87;;;4.50;;
50012;SDS011;35901;48.694;9.476;2024-01-25T06:00:35;14.43;;;4.33;;
50012;SDS011;35901;48.694;9.476;2024-01-25T06:03:00;19.73;;;3.90;;
50012;SDS011;35901;48.694;9.476;2024-01-25T06:05:26;18.83;;;4.30;;
50012;SDS011;35901;48.694;9.476;2024-01-25T06:07:52;11.87;;;3.50;;
50012;SDS011;35901;48.694;9.476;2024-01-25T06:10:17;16.90;;;3.50;;
50012;SDS011;35901;48.694;9.476;2024-01-25T06:12:43;14.77;;;3.97;;
50012;SDS011;35901;48.694;9.476;2024-01-25T06:15:09;13.73;;;4.53;;
50012;SDS011;35901;48.694;9.476;2024-01-25T06:17:35;13.70;;;4.03;;
50012;SDS011;35901;48.694;9.476;2024-01-25T06:20:01;13.43;;;4.57;;
50012;SDS011;35901;48.694;9.476;2024-01-25T06:22:27;15.90;;;4.13;;
50012;SDS011;35901;48.694;9.476;2024-01-25T06:24:53;13.00;;;4.17;;
50012;SDS011;35901;48.694;9.476;2024-01-25T06:27:18;17.83;;;4.30;;
50012;SDS011;35901;48.694;9.476;2024-01-25T06:29:44;16.90;;;4.37;;
50012;SDS011;35901;48.694;9.476;2024-01-25T06:32:10;14.63;;;3.87;;
50012;SDS011;35901;48.694;9.476;2024-01-25T06:34:35;12.03;;;3.70;;
50012;SDS011;35901;48.694;9.476;2024-01-25T06:37:01;17.27;;;4.63;;
50012;SDS011;35901;48.694;9.476;2024-01-25T06:39:27;9.70;;;4.00;;
50012;SDS011;35901;48.694;9.476;2024-01-25T06:41:52;15.43;;;4.03;;
50012;SDS011;35901;48.694;9.476;2024-01-25T06:44:18;13.67;;;3.37;;
50012;SDS011;35901;48.694;9.476;2024-01-25T06:46:44;17.73;;;6.20;;
50012;SDS011;35901;48.694;9.476;2024-01-25T06:49:09;19.47;;;6.87;;
50012;SDS011;35901;48.694;9.476;2024-01-25T06:51:35;13.17;;;5.33;;
50012;SDS011;35901;48.694;9.476;2024-01-25T06:54:01;20.37;;;4.93;;
50012;SDS011;35901;48.694;9.476;2024-01-25T06:56:26;13.90;;;4.13;;
50012;SDS011;35901;48.694;9.476;2024-01-25T06:58:52;16.40;;;4.50;;
50012;SDS011;35901;48.694;9.476;2024-01-25T07:01:21;18.27;;;5.03;;
50012;SDS011;35901;48.694;9.476;2024-01-25T07:03:47;14.67;;;4.60;;
50012;SDS011;35901;48.694;9.476;2024-01-25T07:06:15;15.57;;;3.80;;
50012;SDS011;35901;48.694;9.476;2024-01-25T07:08:42;17.07;;;4.43;;
50012;SDS011;35901;48.694;9.476;2024-01-25T07:11:07;15.97;;;4.63;;
50012;SDS011;35901;48.694;9.476;2024-01-25T07:13:33;14.17;;;4.07;;
50012;SDS011;35901;48.694;9.476;2024-01-25T07:15:59;15.20;;;3.80;;
50012;SDS011;35901;48.694;9.476;2024-01-25T07:18:24;17.20;;;3.80;;
50012;SDS011;35901;48.694;9.476;2024-01-25T07:20:50;16.87;;;3.67;;
50012;SDS011;35901;48.694;9.476;2024-01-25T07:23:16;17.87;;;4.40;;
50012;SDS011;35901;48.694;9.476;2024-01-25T07:25:42;18.60;;;3.87;;
50012;SDS011;35901;48.694;9.476;2024-01-25T07:28:08;19.23;;;4.20;;
50012;SDS011;35901;48.694;9.476;2024-01-25T07:30:34;16.83;;;4.40;;
50012;SDS011;35901;48.694;9.476;2024-01-25T07:33:00;18.20;;;4.43;;
50012;SDS011;35901;48.694;9.476;2024-01-25T07:35:26;17.40;;;5.27;;
50012;SDS011;35901;48.694;9.476;2024-01-25T07:37:52;16.47;;;6.07;;
50012;SDS011;35901;48.694;9.476;2024-01-25T07:40:17;17.33;;;4.80;;
50012;SDS011;35901;48.694;9.476;2024-01-25T07:42:43;20.73;;;5.03;;
50012;SDS011;35901;48.694;9.476;2024-01-25T07:45:09;16.23;;;4.70;;
50012;SDS011;35901;48.694;9.476;2024-01-25T07:47:35;15.53;;;4.80;;
50012;SDS011;35901;48.694;9.476;2024-01-25T07:50:00;16.40;;;4.23;;
50012;SDS011;35901;48.694;9.476;2024-01-25T07:52:27;15.07;;;4.33;;
50012;SDS011;35901;48.694;9.476;2024-01-25T07:54:53;14.47;;;3.73;;
50012;SDS011;35901;48.694;9.476;2024-01-25T07:57:19;12.13;;;3.53;;
50012;SDS011;35901;48.694;9.476;2024-01-25T07:59:45;13.03;;;3.67;;
50012;SDS011;35901;48.694;9.476;2024-01-25T08:02:10;10.43;;;3.53;;
50012;SDS011;35901;48.694;9.476;2024-01-25T08:04:36;14.47;;;4.40;;
50012;SDS011;35901;48.694;9.476;2024-01-25T08:07:01;12.50;;;4.50;;
50012;SDS011;35901;48.694;9.476;2024-01-25T08:09:27;11.60;;;4.37;;
50012;SDS011;35901;48.694;9.476;2024-01-25T08:11:53;10.17;;;3.60;;
50012;SDS011;35901;48.694;9.476;2024-01-25T08:14:19;8.43;;;4.00;;
50012;SDS011;35901;48.694;9.476;2024-01-25T08:16:45;9.30;;;4.07;;
50012;SDS011;35901;48.694;9.476;2024-01-25T08:19:11;12.77;;;4.23;;
50012;SDS011;35901;48.694;9.476;2024-01-25T08:21:36;12.40;;;4.33;;
50012;SDS011;35901;48.694;9.476;2024-01-25T08:24:23;12.90;;;4.17;;
50012;SDS011;35901;48.694;9.476;2024-01-25T08:26:48;12.33;;;4.03;;
50012;SDS011;35901;48.694;9.476;2024-01-25T08:29:14;10.20;;;3.40;;
50012;SDS011;35901;48.694;9.476;2024-01-25T08:31:40;8.57;;;3.20;;
50012;SDS011;35901;48.694;9.476;2024-01-25T08:34:05;11.13;;;3.63;;
50012;SDS011;35901;48.694;9.476;2024-01-25T08:36:32;8.47;;;2.80;;
50012;SDS011;35901;48.694;9.476;2024-01-25T08:38:58;11.00;;;3.33;;
50012;SDS011;35901;48.694;9.476;2024-01-25T08:41:23;8.30;;;3.00;;
50012;SDS011;35901;48.694;9.476;2024-01-25T08:43:50;8.17;;;2.90;;
50012;SDS011;35901;48.694;9.476;2024-01-25T08:46:16;8.00;;;3.43;;
50012;SDS011;35901;48.694;9.476;2024-01-25T08:48:41;9.10;;;3.00;;
50012;SDS011;35901;48.694;9.476;2024-01-25T08:51:07;7.90;;;3.00;;
50012;SDS011;35901;48.694;9.476;2024-01-25T08:53:33;9.20;;;3.03;;
50012;SDS011;35901;48.694;9.476;2024-01-25T08:55:59;5.53;;;3.00;;
50012;SDS011;35901;48.694;9.476;2024-01-25T08:58:25;8.97;;;3.20;;
50012;SDS011;35901;48.694;9.476;2024-01-25T09:00:50;10.77;;;3.43;;
50012;SDS011;35901;48.694;9.476;2024-01-25T09:03:16;10.27;;;3.47;;
50012;SDS011;35901;48.694;9.476;2024-01-25T09:05:42;13.30;;;4.23;;
50012;SDS011;35901;48.694;9.476;2024-01-25T09:08:11;8.90;;;3.50;;
50012;SDS011;35901;48.694;9.476;2024-01-25T09:10:40;8.80;;;3.20;;
50012;SDS011;35901;48.694;9.476;2024-01-25T09:13:07;9.60;;;3.00;;
50012;SDS011;35901;48.694;9.476;2024-01-25T09:15:33;7.67;;;3.10;;
50012;SDS011;35901;48.694;9.476;2024-01-25T09:17:59;7.27;;;2.90;;
50012;SDS011;35901;48.694;9.476;2024-01-25T09:20:26;7.73;;;2.93;;
50012;SDS011;35901;48.694;9.476;2024-01-25T09:22:52;8.33;;;3.10;;
50012;SDS011;35901;48.694;9.476;2024-01-25T09:25:20;7.83;;;3.03;;
50012;SDS011;35901;48.694;9.476;2024-01-25T09:27:46;9.00;;;3.00;;
50012;SDS011;35901;48.694;9.476;2024-01-25T09:30:12;10.03;;;3.30;;
50012;SDS011;35901;48.694;9.476;2024-01-25T09:32:38;7.90;;;2.80;;
50012;SDS011;35901;48.694;9.476;2024-01-25T09:35:04;6.67;;;2.63;;
50012;SDS011;35901;48.694;9.476;2024-01-25T09:37:30;8.33;;;2.77;;
50012;SDS011;35901;48.694;9.476;2024-01-25T09:39:56;6.87;;;2.53;;
50012;SDS011;35901;48.694;9.476;2024-01-25T09:42:24;8.93;;;3.50;;
50012;SDS011;35901;48.694;9.476;2024-01-25T09:44:50;7.20;;;2.57;;
50012;SDS011;35901;48.694;9.476;2024-01-25T09:47:21;8.67;;;2.97;;
50012;SDS011;35901;48.694;9.476;2024-01-25T09:49:47;8.63;;;2.83;;
50012;SDS011;35901;48.694;9.476;2024-01-25T09:52:14;7.83;;;3.00;;
50012;SDS011;35901;48.694;9.476;2024-01-25T09:54:42;9.60;;;2.80;;
50012;SDS011;35901;48.694;9.476;2024-01-25T09:57:15;7.47;;;3.00;;
50012;SDS011;35901;48.694;9.476;2024-01-25T09:59:42;7.27;;;2.93;;
50012;SDS011;35901;48.694;9.476;2024-01-25T10:02:09;8.37;;;2.90;;
50012;SDS011;35901;48.694;9.476;2024-01-25T10:04:35;10.67;;;3.40;;
50012;SDS011;35901;48.694;9.476;2024-01-25T10:07:01;9.60;;;3.17;;
50012;SDS011;35901;48.694;9.476;2024-01-25T10:09:26;7.90;;;3.23;;
50012;SDS011;35901;48.694;9.476;2024-01-25T10:11:52;9.50;;;3.23;;
50012;SDS011;35901;48.694;9.476;2024-01-25T10:14:18;13.13;;;3.53;;
50012;SDS011;35901;48.694;9.476;2024-01-25T10:16:47;10.90;;;3.63;;
50012;SDS011;35901;48.694;9.476;2024-01-25T10:19:12;9.23;;;3.00;;
50012;SDS011;35901;48.694;9.476;2024-01-25T10:21:40;10.57;;;3.57;;
50012;SDS011;35901;48.694;9.476;2024-01-25T10:24:06;10.43;;;3.47;;
50012;SDS011;35901;48.694;9.476;2024-01-25T10:26:33;14.03;;;3.93;;
50012;SDS011;35901;48.694;9.476;2024-01-25T10:29:00;12.53;;;3.60;;
50012;SDS011;35901;48.694;9.476;2024-01-25T10:31:26;12.63;;;3.73;;
50012;SDS011;35901;48.694;9.476;2024-01-25T10:33:54;17.87;;;4.63;;
50012;SDS011;35901;48.694;9.476;2024-01-25T10:36:21;12.80;;;3.60;;
50012;SDS011;35901;48.694;9.476;2024-01-25T10:38:48;15.30;;;3.67;;
50012;SDS011;35901;48.694;9.476;2024-01-25T10:41:15;14.53;;;4.30;;
50012;SDS011;35901;48.694;9.476;2024-01-25T10:43:40;13.00;;;3.37;;
50012;SDS011;35901;48.694;9.476;2024-01-25T10:46:06;13.93;;;3.37;;
50012;SDS011;35901;48.694;9.476;2024-01-25T10:48:34;13.00;;;3.73;;
50012;SDS011;35901;48.694;9.476;2024-01-25T10:51:00;12.37;;;3.47;;
50012;SDS011;35901;48.694;9.476;2024-01-25T10:53:29;11.87;;;3.07;;
50012;SDS011;35901;48.694;9.476;2024-01-25T10:55:58;10.60;;;3.30;;
50012;SDS011;35901;48.694;9.476;2024-01-25T10:58:24;8.80;;;2.93;;
50012;SDS011;35901;48.694;9.476;2024-01-25T11:01:00;11.60;;;4.03;;
50012;SDS011;35901;48.694;9.476;2024-01-25T11:03:28;11.23;;;3.50;;
50012;SDS011;35901;48.694;9.476;2024-01-25T11:06:07;11.20;;;3.47;;
50012;SDS011;35901;48.694;9.476;2024-01-25T11:08:34;10.57;;;3.40;;
50012;SDS011;35901;48.694;9.476;2024-01-25T11:11:03;10.57;;;3.43;;
50012;SDS011;35901;48.694;9.476;2024-01-25T11:13:38;10.50;;;3.40;;
50012;SDS011;35901;48.694;9.476;2024-01-25T11:16:38;8.00;;;3.13;;
50012;SDS011;35901;48.694;9.476;2024-01-25T11:18:59;10.87;;;3.37;;
50012;SDS011;35901;48.694;9.476;2024-01-25T11:21:45;12.90;;;3.70;;
50012;SDS011;35901;48.694;9.476;2024-01-25T11:24:38;9.93;;;3.17;;
50012;SDS011;35901;48.694;9.476;2024-01-25T11:27:03;8.93;;;2.97;;
50012;SDS011;35901;48.694;9.476;2024-01-25T11:29:30;10.23;;;3.20;;
50012;SDS011;35901;48.694;9.476;2024-01-25T11:31:56;9.83;;;3.40;;
50012;SDS011;35901;48.694;9.476;2024-01-25T11:34:22;12.00;;;3.67;;
50012;SDS011;35901;48.694;9.476;2024-01-25T11:36:48;11.73;;;3.27;;
50012;SDS011;35901;48.694;9.476;2024-01-25T11:39:15;9.37;;;3.47;;
50012;SDS011;35901;48.694;9.476;2024-01-25T11:41:41;10.40;;;3.50;;
50012;SDS011;35901;48.694;9.476;2024-01-25T11:44:12;11.23;;;3.77;;
50012;SDS011;35901;48.694;9.476;2024-01-25T11:46:41;10.17;;;3.40;;
50012;SDS011;35901;48.694;9.476;2024-01-25T11:49:07;8.53;;;3.10;;
50012;SDS011;35901;48.694;9.476;2024-01-25T11:51:33;8.03;;;3.00;;
50012;SDS011;35901;48.694;9.476;2024-01-25T11:53:59;10.87;;;3.07;;
50012;SDS011;35901;48.694;9.476;2024-01-25T11:56:29;8.40;;;2.67;;
50012;SDS011;35901;48.694;9.476;2024-01-25T11:58:58;8.27;;;3.17;;
50012;SDS011;35901;48.694;9.476;2024-01-25T12:01:24;8.53;;;3.20;;
50012;SDS011;35901;48.694;9.476;2024-01-25T12:03:50;14.70;;;6.47;;
50012;SDS011;35901;48.694;9.476;2024-01-25T12:06:16;12.30;;;5.60;;
50012;SDS011;35901;48.694;9.476;2024-01-25T12:08:43;11.30;;;4.27;;
50012;SDS011;35901;48.694;9.476;2024-01-25T12:11:10;8.17;;;3.20;;
50012;SDS011;35901;48.694;9.476;2024-01-25T12:13:40;9.53;;;2.90;;
50012;SDS011;35901;48.694;9.476;2024-01-25T12:16:08;10.00;;;3.33;;
50012;SDS011;35901;48.694;9.476;2024-01-25T12:18:34;7.67;;;3.23;;
50012;SDS011;35901;48.694;9.476;2024-01-25T12:21:01;10.97;;;3.27;;
50012;SDS011;35901;48.694;9.476;2024-01-25T12:23:32;10.47;;;3.00;;
50012;SDS011;35901;48.694;9.476;2024-01-25T12:26:08;12.23;;;3.30;;
50012;SDS011;35901;48.694;9.476;2024-01-25T12:28:37;9.20;;;3.13;;
50012;SDS011;35901;48.694;9.476;2024-01-25T12:31:03;5.87;;;2.40;;
50012;SDS011;35901;48.694;9.476;2024-01-25T12:33:30;6.70;;;2.97;;
50012;SDS011;35901;48.694;9.476;2024-01-25T12:35:57;7.83;;;2.80;;
50012;SDS011;35901;48.694;9.476;2024-01-25T12:38:23;8.90;;;2.77;;
50012;SDS011;35901;48.694;9.476;2024-01-25T12:40:50;12.50;;;3.57;;
50012;SDS011;35901;48.694;9.476;2024-01-25T12:43:17;8.10;;;2.73;;
50012;SDS011;35901;48.694;9.476;2024-01-25T12:45:44;9.80;;;3.03;;
50012;SDS011;35901;48.694;9.476;2024-01-25T12:48:10;7.40;;;2.87;;
50012;SDS011;35901;48.694;9.476;2024-01-25T12:50:36;7.47;;;2.73;;
50012;SDS011;35901;48.694;9.476;2024-01-25T12:53:02;7.97;;;2.60;;
50012;SDS011;35901;48.694;9.476;2024-01-25T12:55:30;8.50;;;2.77;;
50012;SDS011;35901;48.694;9.476;2024-01-25T12:57:56;7.93;;;2.40;;
50012;SDS011;35901;48.694;9.476;2024-01-25T13:00:23;8.20;;;2.83;;
50012;SDS011;35901;48.694;9.476;2024-01-25T13:02:49;10.80;;;3.10;;
50012;SDS011;35901;48.694;9.476;2024-01-25T13:05:15;9.03;;;2.80;;
50012;SDS011;35901;48.694;9.476;2024-01-25T13:07:41;11.50;;;3.13;;
50012;SDS011;35901;48.694;9.476;2024-01-25T13:10:08;8.30;;;2.77;;
50012;SDS011;35901;48.694;9.476;2024-01-25T13:12:36;8.53;;;2.87;;
50012;SDS011;35901;48.694;9.476;2024-01-25T13:15:05;12.27;;;3.00;;
50012;SDS011;35901;48.694;9.476;2024-01-25T13:17:31;8.67;;;3.00;;
50012;SDS011;35901;48.694;9.476;2024-01-25T13:19:59;12.07;;;3.83;;
50012;SDS011;35901;48.694;9.476;2024-01-25T13:22:25;15.97;;;5.90;;
50012;SDS011;35901;48.694;9.476;2024-01-25T13:24:51;9.13;;;3.47;;
50012;SDS011;35901;48.694;9.476;2024-01-25T13:27:17;10.00;;;3.20;;
50012;SDS011;35901;48.694;9.476;2024-01-25T13:29:42;6.83;;;2.50;;
50012;SDS011;35901;48.694;9.476;2024-01-25T13:32:08;8.20;;;3.23;;
50012;SDS011;35901;48.694;9.476;2024-01-25T13:34:34;10.83;;;3.00;;
50012;SDS011;35901;48.694;9.476;2024-01-25T13:36:59;8.37;;;2.87;;
50012;SDS011;35901;48.694;9.476;2024-01-25T13:39:25;11.60;;;2.80;;
50012;SDS011;35901;48.694;9.476;2024-01-25T13:41:51;14.10;;;3.07;;
50012;SDS011;35901;48.694;9.476;2024-01-25T13:44:17;10.63;;;3.23;;
50012;SDS011;35901;48.694;9.476;2024-01-25T13:46:42;12.00;;;2.77;;
50012;SDS011;35901;48.694;9.476;2024-01-25T13:49:08;12.67;;;3.00;;
50012;SDS011;35901;48.694;9.476;2024-01-25T13:51:35;7.37;;;2.87;;
50012;SDS011;35901;48.694;9.476;2024-01-25T13:54:01;9.90;;;3.20;;
50012;SDS011;35901;48.694;9.476;2024-01-25T13:56:26;10.27;;;3.00;;
50012;SDS011;35901;48.694;9.476;2024-01-25T13:58:52;8.50;;;3.10;;
50012;SDS011;35901;48.694;9.476;2024-01-25T14:01:17;10.77;;;3.20;;
50012;SDS011;35901;48.694;9.476;2024-01-25T14:03:44;7.87;;;2.60;;
50012;SDS011;35901;48.694;9.476;2024-01-25T14:06:10;9.77;;;3.00;;
50012;SDS011;35901;48.694;9.476;2024-01-25T14:08:36;10.63;;;2.90;;
50012;SDS011;35901;48.694;9.476;2024-01-25T14:11:02;12.43;;;3.20;;
50012;SDS011;35901;48.694;9.476;2024-01-25T14:13:32;12.20;;;3.83;;
50012;SDS011;35901;48.694;9.476;2024-01-25T14:18:42;7.20;;;2.93;;
50012;SDS011;35901;48.694;9.476;2024-01-25T14:21:11;7.27;;;2.57;;
50012;SDS011;35901;48.694;9.476;2024-01-25T14:23:37;11.63;;;3.80;;
50012;SDS011;35901;48.694;9.476;2024-01-25T14:26:02;10.30;;;3.30;;
50012;SDS011;35901;48.694;9.476;2024-01-25T14:28:28;9.73;;;3.27;;
50012;SDS011;35901;48.694;9.476;2024-01-25T14:30:54;9.50;;;3.03;;
50012;SDS011;35901;48.694;9.476;2024-01-25T14:33:19;13.50;;;4.47;;
50012;SDS011;35901;48.694;9.476;2024-01-25T14:35:54;11.67;;;5.33;;
50012;SDS011;35901;48.694;9.476;2024-01-25T14:38:21;8.83;;;3.93;;
50012;SDS011;35901;48.694;9.476;2024-01-25T14:40:48;11.63;;;4.60;;
50012;SDS011;35901;48.694;9.476;2024-01-25T14:43:14;8.00;;;3.60;;
50012;SDS011;35901;48.694;9.476;2024-01-25T14:45:44;11.50;;;5.07;;